Black Gold — ZJL9761 — position and weather

sailwx.info

Track history (hours):
 
Tides and Currents Weather Stations Pressure Air Temp Water Temp Dewpoint Dewpoint Depression Visibility Wind Speed Wind Dir Waves Ship Positions

Black Gold

Last reported at 2018-Jun-20 13:00 UTC. Time now 2018-Jun-20 13:03 UTC.
Position N 36°50' W 076°18'.

Length 38 m; draft 2 m.

Type: Pleasure craft. MMSI: 378112714.

Date/timePositionNaut miles runAvg speedWind from/ knotsBaromVisibWave heightAir tempDewpointWater temp
2018-Jun-20 13:00N 36°50' W 076°18'0 0.0
2018-Jun-20 12:30N 36°50' W 076°18'0 0.0
2018-Jun-20 12:00N 36°50' W 076°18'0 0.0
2018-Jun-20 11:30N 36°50' W 076°18'0 0.0
2018-Jun-20 11:00N 36°50' W 076°18'0 0.0
2018-Jun-20 10:30N 36°50' W 076°18'0 0.0
2018-Jun-20 10:00N 36°50' W 076°18'0 0.0
2018-Jun-20 09:30N 36°50' W 076°18'0 0.0
2018-Jun-20 09:00N 36°50' W 076°18'0 0.0
2018-Jun-20 08:30N 36°50' W 076°18'0 0.0
2018-Jun-20 08:00N 36°50' W 076°18'0 0.0
2018-Jun-20 07:31N 36°50' W 076°18'0 0.0
2018-Jun-20 07:00N 36°50' W 076°18'0 0.0
2018-Jun-20 06:30N 36°50' W 076°18'0 0.0
2018-Jun-20 06:00N 36°50' W 076°18'0 0.0
2018-Jun-20 05:30N 36°50' W 076°18'0 0.0
2018-Jun-20 05:01N 36°50' W 076°18'0 0.0
2018-Jun-20 04:30N 36°50' W 076°18'0 0.0
2018-Jun-20 04:00N 36°50' W 076°18'0 0.0
2018-Jun-20 03:30N 36°50' W 076°18'0 0.0
2018-Jun-20 03:00N 36°50' W 076°18'0 0.0
2018-Jun-20 02:30N 36°50' W 076°18'0 0.0
2018-Jun-20 02:00N 36°50' W 076°18'0 0.0
2018-Jun-20 01:31N 36°50' W 076°18'0 0.0
2018-Jun-20 01:00N 36°50' W 076°18'0 0.0
2018-Jun-20 00:30N 36°50' W 076°18'0 0.0
2018-Jun-20 00:00N 36°50' W 076°18'0 0.0
2018-Jun-19 23:30N 36°50' W 076°18'0 0.0
2018-Jun-19 23:00N 36°50' W 076°18'0 0.0
2018-Jun-19 22:31N 36°50' W 076°18'0 0.0
2018-Jun-19 22:00N 36°50' W 076°18'0 0.0
2018-Jun-19 21:30N 36°50' W 076°18'0 0.0
2018-Jun-19 21:00N 36°50' W 076°18'0 0.0
2018-Jun-19 20:30N 36°50' W 076°18'0 0.0
2018-Jun-19 20:00N 36°50' W 076°18'0 0.0
2018-Jun-19 19:30N 36°50' W 076°18'0 0.0
2018-Jun-19 19:00N 36°50' W 076°18'0 0.0
2018-Jun-19 18:30N 36°50' W 076°18'0 0.0
2018-Jun-19 18:00N 36°50' W 076°18'0 0.0
2018-Jun-19 17:30N 36°50' W 076°18'0 0.0
2018-Jun-19 17:00N 36°50' W 076°18'0 0.0
2018-Jun-19 16:30N 36°50' W 076°18'0 0.0
2018-Jun-19 16:00N 36°50' W 076°18'0 0.0
2018-Jun-19 15:27N 36°50' W 076°18'0 0.0
2018-Jun-19 14:57N 36°50' W 076°18'1 1.9
2018-Jun-19 14:30N 36°51' W 076°18'141 5.3
2018-Jun-18 11:44N 34°31' W 076°38'314.1
2018-Jun-18 11:30N 34°33' W 076°41'713.5
2018-Jun-18 11:01N 34°40' W 076°40'3 5.6
2018-Jun-18 10:30N 34°43' W 076°40'0 0.0
2018-Jun-18 10:00N 34°43' W 076°40'0 0.0
2018-Jun-18 09:30N 34°43' W 076°40'0 0.0
2018-Jun-18 09:00N 34°43' W 076°40'0 0.0
2018-Jun-18 08:29N 34°43' W 076°40'0 0.0
2018-Jun-18 08:00N 34°43' W 076°40'0 0.0
2018-Jun-18 07:30N 34°43' W 076°40'0 0.0
2018-Jun-18 07:00N 34°43' W 076°40'0 0.0
2018-Jun-18 06:30N 34°43' W 076°40'0 0.0
2018-Jun-18 06:00N 34°43' W 076°40'0 0.0
2018-Jun-18 05:30N 34°43' W 076°40'0 0.0
2018-Jun-18 05:00N 34°43' W 076°40'0 0.0
2018-Jun-18 04:30N 34°43' W 076°40'0 0.0
2018-Jun-18 04:00N 34°43' W 076°40'0 0.0
2018-Jun-18 03:30N 34°43' W 076°40'0 0.0
2018-Jun-18 03:00N 34°43' W 076°40'0 0.0
2018-Jun-18 02:30N 34°43' W 076°40'0 0.0
2018-Jun-18 02:00N 34°43' W 076°40'0 0.0
2018-Jun-18 01:30N 34°43' W 076°40'0 0.0
2018-Jun-18 01:00N 34°43' W 076°40'0 0.0
2018-Jun-18 00:30N 34°43' W 076°40'0 0.0
2018-Jun-18 00:00N 34°43' W 076°40'0 0.0
2018-Jun-17 23:30N 34°43' W 076°40'0 0.0
2018-Jun-17 23:00N 34°43' W 076°40'0 0.0
2018-Jun-17 22:30N 34°43' W 076°40'0 0.0
2018-Jun-17 22:00N 34°43' W 076°40'0 0.0
2018-Jun-17 21:30N 34°43' W 076°40'0 0.1
2018-Jun-17 21:00N 34°43' W 076°40'2 4.9
2018-Jun-17 20:31N 34°40' W 076°40'52216.8
2018-Jun-16 13:24N 26°27' W 079°56'717.6
2018-Jun-16 13:01N 26°20' W 079°59'917.6
2018-Jun-16 12:30N 26°11' W 080°01'714.7
2018-Jun-16 12:00N 26°06' W 080°06'2 4.6
2018-Jun-16 11:30N 26°07' W 080°08'2 3.8
2018-Jun-16 11:00N 26°06' W 080°10'1 2.1
2018-Jun-16 10:30N 26°05' W 080°11'0 0.0
2018-Jun-16 09:46N 26°05' W 080°11'0 0.0
2018-Jun-16 09:29N 26°05' W 080°11'0 0.0
2018-Jun-16 08:59N 26°05' W 080°11'0 0.0
2018-Jun-16 08:20N 26°05' W 080°11'0 0.0
2018-Jun-16 07:59N 26°05' W 080°11'0 0.0
2018-Jun-16 07:29N 26°05' W 080°11'0 0.0
2018-Jun-16 06:59N 26°05' W 080°11'0 0.0
2018-Jun-16 06:26N 26°05' W 080°11'0 0.1
2018-Jun-16 05:55N 26°05' W 080°11'0 0.1
2018-Jun-16 05:24N 26°05' W 080°11'0 0.0
2018-Jun-16 04:55N 26°05' W 080°11'0 0.0
2018-Jun-16 04:24N 26°05' W 080°11'0 0.0
2018-Jun-16 03:54N 26°05' W 080°11'0 0.1
2018-Jun-16 03:24N 26°05' W 080°11'0 0.1
2018-Jun-16 02:51N 26°05' W 080°11'0 0.0
2018-Jun-16 02:21N 26°05' W 080°11'0 0.0
2018-Jun-16 01:57N 26°05' W 080°11'0 0.0
2018-Jun-16 01:27N 26°05' W 080°11'0 0.0
2018-Jun-16 00:57N 26°05' W 080°11'0 0.4
2018-Jun-16 00:30N 26°05' W 080°11'0 0.3
2018-Jun-15 23:59N 26°05' W 080°11'0 0.0
2018-Jun-15 23:29N 26°05' W 080°11'0 0.0
2018-Jun-15 22:50N 26°05' W 080°11'0 0.0
2018-Jun-15 22:20N 26°05' W 080°11'0 0.0
2018-Jun-15 21:50N 26°05' W 080°11'0 0.0
2018-Jun-15 21:20N 26°05' W 080°11'0 0.2
2018-Jun-15 20:53N 26°05' W 080°11'0 0.2
2018-Jun-15 20:23N 26°05' W 080°11'0 0.0
2018-Jun-15 19:50N 26°05' W 080°11'0 0.0
2018-Jun-15 19:26N 26°05' W 080°11'0 0.0
2018-Jun-15 18:53N 26°05' W 080°11'0 0.0
2018-Jun-15 18:26N 26°05' W 080°11'0 0.0
2018-Jun-15 17:41N 26°05' W 080°11'0 0.0
2018-Jun-15 17:26N 26°05' W 080°11'0 0.0
2018-Jun-15 16:59N 26°05' W 080°11'0 0.0
2018-Jun-15 16:29N 26°05' W 080°11'0 0.0
2018-Jun-15 15:59N 26°05' W 080°11'0 0.0
2018-Jun-15 15:29N 26°05' W 080°11'0 0.0
2018-Jun-15 14:59N 26°05' W 080°11'0 0.0
2018-Jun-15 14:29N 26°05' W 080°11'0 0.0
2018-Jun-15 13:59N 26°05' W 080°11'0 0.0
2018-Jun-15 13:26N 26°05' W 080°11'0 0.0
2018-Jun-15 12:58N 26°05' W 080°11'0 0.0
2018-Jun-15 12:28N 26°05' W 080°11'  
Track history (hours):
 
Tides and Currents Weather Stations Pressure Air Temp Water Temp Dewpoint Dewpoint Depression Visibility Wind Speed Wind Dir Waves Ship Positions

Black Gold

Last reported at 2018-Jun-20 13:00 UTC. Time now 2018-Jun-20 13:03 UTC.
Position N 36°50' W 076°18'.

Length 38 m; draft 2 m.

Type: Pleasure craft. MMSI: 378112714.

Date/timePositionNaut miles runAvg speedWind from/ knotsBaromVisibWave heightAir tempDewpointWater temp
2018-Jun-20 13:00N 36°50' W 076°18'0 0.0
2018-Jun-20 12:30N 36°50' W 076°18'0 0.0
2018-Jun-20 12:00N 36°50' W 076°18'0 0.0
2018-Jun-20 11:30N 36°50' W 076°18'0 0.0
2018-Jun-20 11:00N 36°50' W 076°18'0 0.0
2018-Jun-20 10:30N 36°50' W 076°18'0 0.0
2018-Jun-20 10:00N 36°50' W 076°18'0 0.0
2018-Jun-20 09:30N 36°50' W 076°18'0 0.0
2018-Jun-20 09:00N 36°50' W 076°18'0 0.0
2018-Jun-20 08:30N 36°50' W 076°18'0 0.0
2018-Jun-20 08:00N 36°50' W 076°18'0 0.0
2018-Jun-20 07:31N 36°50' W 076°18'0 0.0
2018-Jun-20 07:00N 36°50' W 076°18'0 0.0
2018-Jun-20 06:30N 36°50' W 076°18'0 0.0
2018-Jun-20 06:00N 36°50' W 076°18'0 0.0
2018-Jun-20 05:30N 36°50' W 076°18'0 0.0
2018-Jun-20 05:01N 36°50' W 076°18'0 0.0
2018-Jun-20 04:30N 36°50' W 076°18'0 0.0
2018-Jun-20 04:00N 36°50' W 076°18'0 0.0
2018-Jun-20 03:30N 36°50' W 076°18'0 0.0
2018-Jun-20 03:00N 36°50' W 076°18'0 0.0
2018-Jun-20 02:30N 36°50' W 076°18'0 0.0
2018-Jun-20 02:00N 36°50' W 076°18'0 0.0
2018-Jun-20 01:31N 36°50' W 076°18'0 0.0
2018-Jun-20 01:00N 36°50' W 076°18'0 0.0
2018-Jun-20 00:30N 36°50' W 076°18'0 0.0
2018-Jun-20 00:00N 36°50' W 076°18'0 0.0
2018-Jun-19 23:30N 36°50' W 076°18'0 0.0
2018-Jun-19 23:00N 36°50' W 076°18'0 0.0
2018-Jun-19 22:31N 36°50' W 076°18'0 0.0
2018-Jun-19 22:00N 36°50' W 076°18'0 0.0
2018-Jun-19 21:30N 36°50' W 076°18'0 0.0
2018-Jun-19 21:00N 36°50' W 076°18'0 0.0
2018-Jun-19 20:30N 36°50' W 076°18'0 0.0
2018-Jun-19 20:00N 36°50' W 076°18'0 0.0
2018-Jun-19 19:30N 36°50' W 076°18'0 0.0
2018-Jun-19 19:00N 36°50' W 076°18'0 0.0
2018-Jun-19 18:30N 36°50' W 076°18'0 0.0
2018-Jun-19 18:00N 36°50' W 076°18'0 0.0
2018-Jun-19 17:30N 36°50' W 076°18'0 0.0
2018-Jun-19 17:00N 36°50' W 076°18'0 0.0
2018-Jun-19 16:30N 36°50' W 076°18'0 0.0
2018-Jun-19 16:00N 36°50' W 076°18'0 0.0
2018-Jun-19 15:27N 36°50' W 076°18'0 0.0
2018-Jun-19 14:57N 36°50' W 076°18'1 1.9
2018-Jun-19 14:30N 36°51' W 076°18'141 5.3
2018-Jun-18 11:44N 34°31' W 076°38'314.1
2018-Jun-18 11:30N 34°33' W 076°41'713.5
2018-Jun-18 11:01N 34°40' W 076°40'3 5.6
2018-Jun-18 10:30N 34°43' W 076°40'0 0.0
2018-Jun-18 10:00N 34°43' W 076°40'0 0.0
2018-Jun-18 09:30N 34°43' W 076°40'0 0.0
2018-Jun-18 09:00N 34°43' W 076°40'0 0.0
2018-Jun-18 08:29N 34°43' W 076°40'0 0.0
2018-Jun-18 08:00N 34°43' W 076°40'0 0.0
2018-Jun-18 07:30N 34°43' W 076°40'0 0.0
2018-Jun-18 07:00N 34°43' W 076°40'0 0.0
2018-Jun-18 06:30N 34°43' W 076°40'0 0.0
2018-Jun-18 06:00N 34°43' W 076°40'0 0.0
2018-Jun-18 05:30N 34°43' W 076°40'0 0.0
2018-Jun-18 05:00N 34°43' W 076°40'0 0.0
2018-Jun-18 04:30N 34°43' W 076°40'0 0.0
2018-Jun-18 04:00N 34°43' W 076°40'0 0.0
2018-Jun-18 03:30N 34°43' W 076°40'0 0.0
2018-Jun-18 03:00N 34°43' W 076°40'0 0.0
2018-Jun-18 02:30N 34°43' W 076°40'0 0.0
2018-Jun-18 02:00N 34°43' W 076°40'0 0.0
2018-Jun-18 01:30N 34°43' W 076°40'0 0.0
2018-Jun-18 01:00N 34°43' W 076°40'0 0.0
2018-Jun-18 00:30N 34°43' W 076°40'0 0.0
2018-Jun-18 00:00N 34°43' W 076°40'0 0.0
2018-Jun-17 23:30N 34°43' W 076°40'0 0.0
2018-Jun-17 23:00N 34°43' W 076°40'0 0.0
2018-Jun-17 22:30N 34°43' W 076°40'0 0.0
2018-Jun-17 22:00N 34°43' W 076°40'0 0.0
2018-Jun-17 21:30N 34°43' W 076°40'0 0.1
2018-Jun-17 21:00N 34°43' W 076°40'2 4.9
2018-Jun-17 20:31N 34°40' W 076°40'52216.8
2018-Jun-16 13:24N 26°27' W 079°56'717.6
2018-Jun-16 13:01N 26°20' W 079°59'917.6
2018-Jun-16 12:30N 26°11' W 080°01'714.7
2018-Jun-16 12:00N 26°06' W 080°06'2 4.6
2018-Jun-16 11:30N 26°07' W 080°08'2 3.8
2018-Jun-16 11:00N 26°06' W 080°10'1 2.1
2018-Jun-16 10:30N 26°05' W 080°11'0 0.0
2018-Jun-16 09:46N 26°05' W 080°11'0 0.0
2018-Jun-16 09:29N 26°05' W 080°11'0 0.0
2018-Jun-16 08:59N 26°05' W 080°11'0 0.0
2018-Jun-16 08:20N 26°05' W 080°11'0 0.0
2018-Jun-16 07:59N 26°05' W 080°11'0 0.0
2018-Jun-16 07:29N 26°05' W 080°11'0 0.0
2018-Jun-16 06:59N 26°05' W 080°11'0 0.0
2018-Jun-16 06:26N 26°05' W 080°11'0 0.1
2018-Jun-16 05:55N 26°05' W 080°11'0 0.1
2018-Jun-16 05:24N 26°05' W 080°11'0 0.0
2018-Jun-16 04:55N 26°05' W 080°11'0 0.0
2018-Jun-16 04:24N 26°05' W 080°11'0 0.0
2018-Jun-16 03:54N 26°05' W 080°11'0 0.1
2018-Jun-16 03:24N 26°05' W 080°11'0 0.1
2018-Jun-16 02:51N 26°05' W 080°11'0 0.0
2018-Jun-16 02:21N 26°05' W 080°11'0 0.0
2018-Jun-16 01:57N 26°05' W 080°11'0 0.0
2018-Jun-16 01:27N 26°05' W 080°11'0 0.0
2018-Jun-16 00:57N 26°05' W 080°11'0 0.4
2018-Jun-16 00:30N 26°05' W 080°11'0 0.3
2018-Jun-15 23:59N 26°05' W 080°11'0 0.0
2018-Jun-15 23:29N 26°05' W 080°11'0 0.0
2018-Jun-15 22:50N 26°05' W 080°11'0 0.0
2018-Jun-15 22:20N 26°05' W 080°11'0 0.0
2018-Jun-15 21:50N 26°05' W 080°11'0 0.0
2018-Jun-15 21:20N 26°05' W 080°11'0 0.2
2018-Jun-15 20:53N 26°05' W 080°11'0 0.2
2018-Jun-15 20:23N 26°05' W 080°11'0 0.0
2018-Jun-15 19:50N 26°05' W 080°11'0 0.0
2018-Jun-15 19:26N 26°05' W 080°11'0 0.0
2018-Jun-15 18:53N 26°05' W 080°11'0 0.0
2018-Jun-15 18:26N 26°05' W 080°11'0 0.0
2018-Jun-15 17:41N 26°05' W 080°11'0 0.0
2018-Jun-15 17:26N 26°05' W 080°11'0 0.0
2018-Jun-15 16:59N 26°05' W 080°11'0 0.0
2018-Jun-15 16:29N 26°05' W 080°11'0 0.0
2018-Jun-15 15:59N 26°05' W 080°11'0 0.0
2018-Jun-15 15:29N 26°05' W 080°11'0 0.0
2018-Jun-15 14:59N 26°05' W 080°11'0 0.0
2018-Jun-15 14:29N 26°05' W 080°11'0 0.0
2018-Jun-15 13:59N 26°05' W 080°11'0 0.0
2018-Jun-15 13:26N 26°05' W 080°11'0 0.0
2018-Jun-15 12:58N 26°05' W 080°11'0 0.0
2018-Jun-15 12:28N 26°05' W 080°11'  

Dump ship's entire track history